Emporia, Kansas
Current Conditions -  °F | °C
As of 10:53 PM on Monday 22 Dec 2014 (Local Time) from KEMP Reporting Station
Overcast Overcast  
Wind Chill: 31°   Ceiling: 9000
Heat Index: 37°   Visibility: 10mi
Dew Point: 33°   Wind: 8mph
Humidity: 86%   Direction: 230°SW
Pressure: 29.62"   Gusts: NA
Location:  38.41°N, 96.18°W
Report Text: KEMP 230453Z AUTO 23007KT 10SM OVC090 03/01 A2962 RMK AO2 SLP037 T00280006
Loading
Personal Weather Stations






























Interactive Weather Map New forecast layout! Learn more

10-Day Weather Forecast

Advertisements
Track Severe Weather on mobile